Time;durP1;ratioP1;P1;durP2;ratioP2;P2;SDS_P1;SDS_P2;PMS_P1;PMS_P2;Temp;Humidity;BMP_temperature;BMP_pressure;BME280_temperature;BME280_humidity;BME280_pressure;Samples;Min_cycle;Max_cycle;Signal;HPM_P1;HPM_P2
2020/12/09 00:00:08;;;;;;;24.73;11.30;;;3.40;99.90;;;;;;5093788;28;20028;-75
2020/12/09 00:02:34;;;;;;;26.15;12.23;;;3.40;99.90;;;;;;5097283;28;20028;-75
2020/12/09 00:05:02;;;;;;;25.10;11.05;;;3.40;99.90;;;;;;5096897;28;20017;-76
2020/12/09 00:07:28;;;;;;;24.65;11.88;;;3.40;99.90;;;;;;5095952;28;20470;-75
2020/12/09 00:09:53;;;;;;;25.05;11.82;;;3.40;99.90;;;;;;5096897;28;20028;-76
2020/12/09 00:12:19;;;;;;;29.52;10.90;;;3.40;99.90;;;;;;5097038;28;20032;-76
2020/12/09 00:14:54;;;;;;;22.95;10.32;;;3.40;99.90;;;;;;5095473;28;20035;-76
2020/12/09 00:17:20;;;;;;;25.75;11.57;;;3.40;99.90;;;;;;5096106;28;20032;-75
2020/12/09 00:19:45;;;;;;;24.50;10.80;;;3.40;99.90;;;;;;5084996;28;20470;-76
2020/12/09 00:22:11;;;;;;;22.75;10.80;;;3.40;99.90;;;;;;5075094;28;20031;-75
2020/12/09 00:24:39;;;;;;;25.50;11.27;;;3.40;99.90;;;;;;5075078;28;20027;-75
2020/12/09 00:27:05;;;;;;;22.88;11.05;;;3.40;99.90;;;;;;5076284;28;20065;-75
2020/12/09 00:29:30;;;;;;;25.92;11.10;;;3.40;99.90;;;;;;5075646;28;20017;-74
2020/12/09 00:31:56;;;;;;;22.27;10.73;;;3.40;99.90;;;;;;5074997;28;20082;-76
2020/12/09 00:34:21;;;;;;;24.73;11.30;;;3.40;99.90;;;;;;5076089;28;20108;-75
2020/12/09 00:36:47;;;;;;;24.90;11.23;;;3.40;99.90;;;;;;5076189;28;20020;-74
2020/12/09 00:39:12;;;;;;;22.27;11.30;;;3.40;99.90;;;;;;5074792;28;20034;-74
2020/12/09 00:41:38;;;;;;;27.20;11.52;;;3.40;99.90;;;;;;5076275;28;20100;-77
2020/12/09 00:44:04;;;;;;;22.45;10.70;;;3.30;99.90;;;;;;5076434;28;20025;-74
2020/12/09 00:46:30;;;;;;;20.63;10.80;;;3.30;99.90;;;;;;5076098;28;20021;-76
2020/12/09 00:48:55;;;;;;;23.90;11.32;;;3.30;99.90;;;;;;5076112;28;20083;-74
2020/12/09 00:51:23;;;;;;;25.45;11.95;;;3.30;99.90;;;;;;5074597;28;20432;-74
2020/12/09 00:53:49;;;;;;;24.88;10.25;;;3.30;99.90;;;;;;5076106;28;20021;-75
2020/12/09 00:56:14;;;;;;;20.13;9.98;;;3.30;99.90;;;;;;5094186;28;20090;-76
2020/12/09 00:58:40;;;;;;;27.88;11.80;;;3.30;99.90;;;;;;5096222;28;20062;-76
2020/12/09 01:01:08;;;;;;;23.02;11.32;;;3.30;99.90;;;;;;5096090;28;20024;-75
2020/12/09 01:03:34;;;;;;;24.08;11.57;;;3.30;99.90;;;;;;5096404;28;20027;-75
2020/12/09 01:06:01;;;;;;;28.63;12.05;;;3.40;99.90;;;;;;5078045;28;20028;-75
2020/12/09 01:08:27;;;;;;;22.08;10.40;;;3.40;99.90;;;;;;5075536;28;20028;-75
2020/12/09 01:10:54;;;;;;;23.75;11.18;;;3.30;99.90;;;;;;5074980;28;20029;-75
2020/12/09 01:13:20;;;;;;;26.90;12.07;;;3.30;99.90;;;;;;5074276;28;20562;-75
2020/12/09 01:15:45;;;;;;;26.30;11.18;;;3.30;99.90;;;;;;5075591;28;20020;-74
2020/12/09 01:18:11;;;;;;;26.10;11.80;;;3.30;99.90;;;;;;5075302;28;20103;-74
2020/12/09 01:20:36;;;;;;;27.58;12.48;;;3.20;99.90;;;;;;5075267;28;20025;-74
2020/12/09 01:23:03;;;;;;;26.80;11.70;;;3.20;99.90;;;;;;5073878;28;20072;-75
2020/12/09 01:25:29;;;;;;;34.90;11.43;;;3.20;99.90;;;;;;5073967;28;20020;-75
2020/12/09 01:27:57;;;;;;;25.33;12.60;;;3.20;99.90;;;;;;5075181;28;20097;-75
2020/12/09 01:30:23;;;;;;;24.80;11.77;;;3.20;99.90;;;;;;5075390;28;20036;-74
2020/12/09 01:32:49;;;;;;;23.70;11.10;;;3.20;99.90;;;;;;5075680;28;20092;-75
2020/12/09 01:35:15;;;;;;;25.40;11.35;;;3.20;99.90;;;;;;5075347;28;20031;-76
2020/12/09 01:37:40;;;;;;;24.73;12.00;;;3.20;99.90;;;;;;5075299;28;20021;-76
2020/12/09 01:40:06;;;;;;;27.80;11.98;;;3.20;99.90;;;;;;5073785;28;20027;-76
2020/12/09 01:42:32;;;;;;;27.20;12.40;;;3.30;99.90;;;;;;5075255;28;20033;-75
2020/12/09 01:44:57;;;;;;;25.25;11.02;;;3.30;99.90;;;;;;5073849;28;20086;-75
2020/12/09 01:47:23;;;;;;;26.75;11.45;;;3.20;99.90;;;;;;5075186;28;20055;-75
2020/12/09 01:49:48;;;;;;;24.00;11.20;;;3.30;99.90;;;;;;5073607;28;20066;-75
2020/12/09 01:52:15;;;;;;;23.02;11.07;;;3.30;99.90;;;;;;5074682;28;20028;-75
2020/12/09 01:54:40;;;;;;;25.73;11.50;;;3.20;99.90;;;;;;5093466;28;20396;-75
2020/12/09 01:57:06;;;;;;;26.88;11.60;;;3.20;99.90;;;;;;5095365;28;20027;-75
2020/12/09 01:59:32;;;;;;;23.40;10.30;;;3.20;99.90;;;;;;5093465;28;20069;-76
2020/12/09 02:01:59;;;;;;;23.40;11.18;;;3.10;99.90;;;;;;5094875;28;20028;-75
2020/12/09 02:04:24;;;;;;;23.40;10.30;;;3.10;99.90;;;;;;5094974;28;20028;-76
2020/12/09 02:06:53;;;;;;;29.63;11.35;;;3.10;99.90;;;;;;5081773;28;20027;-76
2020/12/09 02:09:23;;;;;;;25.38;11.13;;;3.00;99.90;;;;;;5074130;28;20079;-76
2020/12/09 02:11:50;;;;;;;24.52;11.23;;;2.90;99.90;;;;;;5073004;28;20069;-76
2020/12/09 02:14:16;;;;;;;27.73;12.23;;;2.90;99.90;;;;;;5074282;28;20017;-75
2020/12/09 02:16:41;;;;;;;23.80;11.07;;;2.80;99.90;;;;;;5085235;28;20028;-75
2020/12/09 02:19:07;;;;;;;21.55;9.85;;;2.80;99.90;;;;;;5094268;28;20491;-74
2020/12/09 02:21:36;;;;;;;22.67;9.68;;;2.70;99.90;;;;;;5093103;28;20038;-74
2020/12/09 02:24:02;;;;;;;26.27;10.93;;;2.70;99.90;;;;;;5094176;28;20024;-74
2020/12/09 02:26:29;;;;;;;25.10;12.38;;;2.70;99.90;;;;;;5094263;28;20031;-74
2020/12/09 02:28:55;;;;;;;24.90;10.73;;;2.60;99.90;;;;;;5089652;28;20099;-74
2020/12/09 02:31:21;;;;;;;22.23;10.23;;;2.50;99.90;;;;;;5072625;28;20020;-74
2020/12/09 02:33:46;;;;;;;27.90;12.02;;;2.40;99.90;;;;;;5073944;28;20090;-74
2020/12/09 02:36:12;;;;;;;21.58;10.00;;;2.30;99.90;;;;;;5080188;28;20032;-75
2020/12/09 02:38:41;;;;;;;25.35;10.57;;;2.20;99.90;;;;;;5093929;28;20028;-75
2020/12/09 02:41:07;;;;;;;19.27;9.93;;;2.10;99.90;;;;;;5092971;28;20389;-74
2020/12/09 02:43:32;;;;;;;22.60;10.55;;;2.10;99.90;;;;;;5094752;28;20024;-76
2020/12/09 02:45:58;;;;;;;23.33;10.50;;;2.00;99.90;;;;;;5076118;28;20028;-76
2020/12/09 02:48:24;;;;;;;26.48;12.02;;;2.00;99.90;;;;;;5073712;28;20025;-76
2020/12/09 02:50:49;;;;;;;22.70;10.40;;;1.90;99.90;;;;;;5073551;28;20016;-76
2020/12/09 02:53:15;;;;;;;22.92;10.27;;;1.80;99.90;;;;;;5074976;28;20021;-75
2020/12/09 02:55:40;;;;;;;23.35;9.57;;;1.80;99.90;;;;;;5073940;28;20090;-74
2020/12/09 02:58:06;;;;;;;23.85;10.45;;;1.70;99.90;;;;;;5073937;28;20105;-74
2020/12/09 03:00:31;;;;;;;37.92;11.48;;;1.60;99.90;;;;;;5073859;28;20440;-74
2020/12/09 03:02:57;;;;;;;24.00;10.30;;;1.50;99.90;;;;;;5081543;28;20020;-75
2020/12/09 03:05:23;;;;;;;21.70;10.27;;;1.50;99.90;;;;;;5093756;28;20057;-75
2020/12/09 03:07:49;;;;;;;25.00;10.00;;;1.50;99.90;;;;;;5093940;28;20024;-74
2020/12/09 03:10:17;;;;;;;24.25;10.45;;;1.40;99.90;;;;;;5093731;28;20031;-75
2020/12/09 03:12:43;;;;;;;25.00;10.68;;;1.20;99.90;;;;;;5093791;28;20031;-74
2020/12/09 03:15:08;;;;;;;23.52;10.15;;;1.20;99.90;;;;;;5082038;28;20029;-76
2020/12/09 03:17:34;;;;;;;29.88;11.02;;;1.20;99.90;;;;;;5073309;28;20371;-74
2020/12/09 03:19:59;;;;;;;20.52;8.90;;;1.20;99.90;;;;;;5073467;28;20130;-74
2020/12/09 03:22:25;;;;;;;22.60;9.63;;;1.20;99.90;;;;;;5076564;28;20500;-76
2020/12/09 03:24:50;;;;;;;23.48;10.15;;;1.10;99.90;;;;;;5093588;28;20118;-75
2020/12/09 03:27:16;;;;;;;27.08;11.55;;;1.10;99.90;;;;;;5093327;28;20062;-75
2020/12/09 03:29:41;;;;;;;21.58;9.38;;;1.10;99.90;;;;;;5092207;28;20141;-74
2020/12/09 03:32:07;;;;;;;20.05;9.52;;;1.00;99.90;;;;;;5093773;28;20099;-73
2020/12/09 03:34:32;;;;;;;19.80;8.93;;;1.00;99.90;;;;;;5094573;28;20032;-74
2020/12/09 03:36:58;;;;;;;25.05;10.15;;;1.00;99.90;;;;;;5098059;28;20030;-75
2020/12/09 03:39:23;;;;;;;20.95;9.05;;;0.90;99.90;;;;;;5097287;28;20020;-76
2020/12/09 03:41:49;;;;;;;22.77;8.60;;;0.90;99.90;;;;;;5096054;28;20107;-75
2020/12/09 03:44:14;;;;;;;21.80;9.00;;;0.80;99.90;;;;;;5077669;28;20031;-76
2020/12/09 03:46:40;;;;;;;18.80;8.13;;;0.70;99.90;;;;;;5075815;28;20029;-74
2020/12/09 03:49:05;;;;;;;19.38;8.98;;;0.70;99.90;;;;;;5075927;28;20074;-75
2020/12/09 03:51:31;;;;;;;23.95;8.73;;;0.70;99.90;;;;;;5075803;28;20017;-75
2020/12/09 03:53:56;;;;;;;21.52;8.02;;;0.60;99.90;;;;;;5092923;28;20031;-75
2020/12/09 03:56:22;;;;;;;18.40;8.48;;;0.60;99.90;;;;;;5096049;28;20028;-75
2020/12/09 03:58:47;;;;;;;16.58;7.72;;;0.60;99.90;;;;;;5097151;28;20085;-76
2020/12/09 04:01:13;;;;;;;14.88;6.95;;;0.50;99.90;;;;;;5097236;28;20030;-76
2020/12/09 04:03:38;;;;;;;14.75;7.50;;;0.50;99.90;;;;;;5094926;28;20024;-76
2020/12/09 04:06:04;;;;;;;13.07;6.65;;;0.40;99.90;;;;;;5095330;28;20104;-76
2020/12/09 04:08:30;;;;;;;13.75;7.22;;;0.40;99.90;;;;;;5095522;28;20028;-77
2020/12/09 04:10:55;;;;;;;15.55;7.15;;;0.30;99.90;;;;;;5097553;28;20023;-75
2020/12/09 04:13:21;;;;;;;16.45;7.95;;;0.30;99.90;;;;;;5096990;28;20020;-74
2020/12/09 04:15:46;;;;;;;17.67;7.43;;;0.30;99.90;;;;;;5097254;28;20039;-75
2020/12/09 04:18:12;;;;;;;15.88;8.32;;;0.30;99.90;;;;;;5097124;28;20092;-75
2020/12/09 04:20:38;;;;;;;17.73;7.63;;;0.40;99.90;;;;;;5095580;28;20108;-76
2020/12/09 04:23:03;;;;;;;17.08;7.78;;;0.40;99.90;;;;;;5097475;28;20101;-75
2020/12/09 04:25:29;;;;;;;15.75;7.95;;;0.50;99.90;;;;;;5096169;28;20035;-76
2020/12/09 04:27:54;;;;;;;21.02;7.82;;;0.50;99.90;;;;;;5076503;28;20032;-76
2020/12/09 04:30:20;;;;;;;18.02;8.50;;;0.50;99.90;;;;;;5076597;28;20016;-75
2020/12/09 04:32:46;;;;;;;17.70;8.00;;;0.60;99.90;;;;;;5076403;28;20390;-75
2020/12/09 04:35:11;;;;;;;21.20;8.85;;;0.70;99.90;;;;;;5074901;28;20059;-75
2020/12/09 04:37:38;;;;;;;41.03;10.57;;;0.80;99.90;;;;;;5076434;28;20024;-74
2020/12/09 04:40:05;;;;;;;77.03;11.23;;;0.90;99.90;;;;;;5076206;28;20028;-74
2020/12/09 04:42:31;;;;;;;121.30;13.32;;;1.00;99.90;;;;;;5089111;28;20026;-74
2020/12/09 04:44:57;;;;;;;169.57;13.95;;;1.00;99.90;;;;;;5096362;28;20099;-74
2020/12/09 04:47:26;;;;;;;151.40;13.82;;;1.10;99.90;;;;;;5093675;28;20081;-74
2020/12/09 04:50:06;;;;;;;194.90;13.52;;;1.20;99.90;;;;;;5095992;28;20008;-74
2020/12/09 04:52:47;;;;;;;134.85;12.45;;;1.20;99.90;;;;;;5096413;28;20431;-75
2020/12/09 04:55:15;;;;;;;89.55;12.10;;;1.20;99.90;;;;;;5096401;28;20664;-74
2020/12/09 04:57:53;;;;;;;83.45;11.18;;;1.20;99.90;;;;;;5096224;28;20109;-74
2020/12/09 05:00:20;;;;;;;130.70;12.07;;;1.20;99.90;;;;;;5096212;28;20020;-74
2020/12/09 05:02:52;;;;;;;178.30;13.07;;;1.10;99.90;;;;;;5095179;28;20065;-75
2020/12/09 05:05:23;;;;;;;168.85;12.85;;;1.20;99.90;;;;;;5095919;28;20024;-76
2020/12/09 05:07:51;;;;;;;92.60;10.40;;;1.10;99.90;;;;;;5095874;28;20362;-77
2020/12/09 05:10:21;;;;;;;97.53;12.20;;;1.10;99.90;;;;;;5094620;28;20093;-77
2020/12/09 05:12:50;;;;;;;82.72;11.38;;;1.20;99.90;;;;;;5081804;28;20559;-76
2020/12/09 05:15:20;;;;;;;77.13;10.90;;;1.20;99.90;;;;;;5094657;28;20530;-76
2020/12/09 05:18:05;;;;;;;66.68;10.20;;;1.20;99.90;;;;;;5094390;28;20046;-75
2020/12/09 05:20:36;;;;;;;81.82;10.25;;;1.20;99.90;;;;;;5094502;28;20106;-75
2020/12/09 05:23:06;;;;;;;54.92;9.32;;;1.20;99.90;;;;;;5095823;28;20048;-75
2020/12/09 05:25:33;;;;;;;86.63;10.75;;;1.10;99.90;;;;;;5096255;28;20096;-75
2020/12/09 05:27:59;;;;;;;106.35;10.65;;;1.10;99.90;;;;;;5095735;28;20032;-74
2020/12/09 05:30:57;;;;;;;85.50;9.80;;;1.00;99.90;;;;;;5095834;28;20077;-74
2020/12/09 05:33:31;;;;;;;70.10;10.73;;;0.50;99.90;;;;;;5061849;28;20040;-75
2020/12/09 05:35:58;;;;;;;60.15;9.45;;;1.00;99.90;;;;;;5095565;28;20488;-75
2020/12/09 05:38:23;;;;;;;75.15;10.95;;;1.00;99.90;;;;;;5095269;28;20110;-75
2020/12/09 05:40:49;;;;;;;58.33;8.65;;;1.00;99.90;;;;;;5082783;28;20154;-76
2020/12/09 05:43:16;;;;;;;81.53;9.60;;;1.00;99.90;;;;;;5075444;28;20021;-76
2020/12/09 05:45:41;;;;;;;91.43;9.68;;;1.00;99.90;;;;;;5073898;28;20025;-76
2020/12/09 05:48:12;;;;;;;73.95;10.20;;;1.00;99.90;;;;;;5074737;28;20039;-75
2020/12/09 05:51:01;;;;;;;78.75;9.55;;;0.90;99.90;;;;;;5083897;28;20024;-75
2020/12/09 05:53:35;;;;;;;87.30;9.07;;;0.90;99.90;;;;;;5095406;28;20016;-75
2020/12/09 05:56:12;;;;;;;49.75;9.27;;;0.90;99.90;;;;;;5095114;28;20020;-75
2020/12/09 05:58:45;;;;;;;64.35;9.73;;;0.90;99.90;;;;;;5093498;28;20020;-75
2020/12/09 06:01:21;;;;;;;61.42;9.18;;;0.90;99.90;;;;;;5088976;28;20016;-75
2020/12/09 06:03:53;;;;;;;69.80;9.70;;;0.80;99.90;;;;;;5094940;28;20074;-75
2020/12/09 06:06:24;;;;;;;50.30;8.77;;;0.80;99.90;;;;;;5084678;28;20100;-75
2020/12/09 06:08:50;;;;;;;57.08;9.45;;;0.70;99.90;;;;;;5074233;28;20032;-75
2020/12/09 06:11:21;;;;;;;69.78;9.45;;;0.70;99.90;;;;;;5073266;28;20036;-75
2020/12/09 06:13:47;;;;;;;62.53;9.68;;;0.60;99.90;;;;;;5074509;28;20153;-75
2020/12/09 06:16:13;;;;;;;53.65;9.38;;;0.60;99.90;;;;;;5073174;28;20499;-75
2020/12/09 06:18:42;;;;;;;69.97;9.50;;;0.60;99.90;;;;;;5074473;28;20117;-75
2020/12/09 06:21:08;;;;;;;45.75;9.45;;;0.50;99.90;;;;;;5074638;28;20409;-75
2020/12/09 06:23:34;;;;;;;80.38;10.73;;;0.50;99.90;;;;;;5073167;28;20027;-75
2020/12/09 06:26:01;;;;;;;68.90;9.88;;;0.40;99.90;;;;;;5073070;28;20025;-75
2020/12/09 06:28:28;;;;;;;55.63;9.90;;;0.40;99.90;;;;;;5074235;28;20020;-75
2020/12/09 06:30:56;;;;;;;64.28;9.50;;;0.30;99.90;;;;;;5074548;28;20021;-74
2020/12/09 06:33:37;;;;;;;46.13;9.13;;;0.30;99.90;;;;;;5072912;28;20023;-74
2020/12/09 06:36:23;;;;;;;46.88;9.32;;;0.30;99.90;;;;;;5078797;28;20028;-75
2020/12/09 06:39:07;;;;;;;60.58;9.20;;;0.20;99.90;;;;;;5094420;28;20012;-75
2020/12/09 06:41:35;;;;;;;87.03;10.20;;;0.20;99.90;;;;;;5094671;28;20446;-74
2020/12/09 06:44:05;;;;;;;58.03;9.50;;;0.20;99.90;;;;;;5094439;28;20016;-74
2020/12/09 06:46:42;;;;;;;58.97;9.55;;;0.20;99.90;;;;;;5085692;28;20039;-74
2020/12/09 06:49:29;;;;;;;78.50;10.40;;;0.20;99.90;;;;;;5072918;28;20412;-74
2020/12/09 06:51:56;;;;;;;56.70;9.50;;;0.20;99.90;;;;;;5073016;28;20048;-74
2020/12/09 06:54:21;;;;;;;65.00;10.35;;;0.20;99.90;;;;;;5074039;28;20035;-74
2020/12/09 06:57:17;;;;;;;65.05;10.20;;;0.20;99.90;;;;;;5085136;28;20115;-74
2020/12/09 06:59:44;;;;;;;77.45;11.02;;;0.10;99.90;;;;;;5071494;28;20044;-74
2020/12/09 07:02:10;;;;;;;56.17;10.05;;;0.20;99.90;;;;;;5073868;28;20358;-73
2020/12/09 07:04:54;;;;;;;37.08;10.43;;;0.10;99.90;;;;;;5074266;28;20031;-74
2020/12/09 07:07:26;;;;;;;71.53;11.75;;;0.10;99.90;;;;;;5074092;28;20020;-75
2020/12/09 07:09:52;;;;;;;83.25;11.57;;;0.10;99.90;;;;;;5072874;28;20033;-75
2020/12/09 07:12:19;;;;;;;72.65;12.02;;;0.10;99.90;;;;;;5072499;28;20066;-74
2020/12/09 07:14:52;;;;;;;71.30;11.10;;;0.10;99.90;;;;;;5072788;28;20028;-74
2020/12/09 07:17:22;;;;;;;79.95;11.80;;;0.20;99.90;;;;;;5073633;28;20024;-74
2020/12/09 07:19:48;;;;;;;83.45;12.75;;;0.10;99.90;;;;;;5070652;28;20013;-75
2020/12/09 07:22:13;;;;;;;83.80;11.13;;;0.10;99.90;;;;;;5072660;28;20036;-75
2020/12/09 07:24:39;;;;;;;44.95;9.90;;;0.20;99.90;;;;;;5073205;28;20021;-75
2020/12/09 07:27:05;;;;;;;65.20;11.35;;;0.10;99.90;;;;;;5072377;28;20021;-75
2020/12/09 07:29:30;;;;;;;85.93;12.30;;;0.20;99.90;;;;;;5072221;28;20027;-75
2020/12/09 07:32:00;;;;;;;46.90;11.80;;;0.20;99.90;;;;;;5073706;28;20017;-74
2020/12/09 07:34:27;;;;;;;63.60;11.75;;;0.30;99.90;;;;;;5072124;28;20020;-74
2020/12/09 07:36:53;;;;;;;64.22;11.23;;;0.20;99.90;;;;;;5073202;28;20024;-73
2020/12/09 07:39:26;;;;;;;81.72;11.15;;;0.20;99.90;;;;;;5073137;28;20041;-74
2020/12/09 07:41:56;;;;;;;100.13;11.43;;;0.20;99.90;;;;;;5073144;28;20032;-74
2020/12/09 07:44:21;;;;;;;110.13;12.23;;;0.20;99.90;;;;;;5073790;28;20021;-74
2020/12/09 07:46:58;;;;;;;64.35;10.68;;;0.10;99.90;;;;;;5072712;28;20032;-74
2020/12/09 07:49:25;;;;;;;75.03;12.25;;;0.00;99.90;;;;;;5072106;28;20025;-73
2020/12/09 07:51:52;;;;;;;57.53;11.18;;;0.00;99.90;;;;;;5072001;28;20017;-73
2020/12/09 07:54:19;;;;;;;94.70;13.05;;;0.00;99.90;;;;;;5072009;28;20393;-73
2020/12/09 07:56:45;;;;;;;49.65;11.27;;;0.00;99.90;;;;;;5073229;28;20470;-75
2020/12/09 07:59:12;;;;;;;63.22;11.45;;;-0.10;99.90;;;;;;5073268;28;20027;-74
2020/12/09 08:01:38;;;;;;;56.83;11.82;;;-0.10;99.90;;;;;;5071770;28;20478;-74
2020/12/09 08:04:05;;;;;;;61.10;11.93;;;-0.10;99.90;;;;;;5073043;28;20021;-73
2020/12/09 08:06:30;;;;;;;54.95;12.02;;;-0.10;99.90;;;;;;5072878;28;20029;-73
2020/12/09 08:08:56;;;;;;;64.80;12.43;;;-0.10;99.90;;;;;;5071810;28;20091;-73
2020/12/09 08:11:22;;;;;;;67.00;12.98;;;-0.10;99.90;;;;;;5072844;28;20035;-73
2020/12/09 08:13:48;;;;;;;62.65;12.98;;;-0.10;99.90;;;;;;5073931;28;20028;-73
2020/12/09 08:16:14;;;;;;;29.98;11.57;;;-0.10;99.90;;;;;;5071971;28;20020;-73
2020/12/09 08:18:41;;;;;;;43.03;12.13;;;-0.10;99.90;;;;;;5073344;28;20500;-72
2020/12/09 08:21:08;;;;;;;38.25;12.27;;;-0.10;99.90;;;;;;5075110;28;20021;-73
2020/12/09 08:23:43;;;;;;;50.42;14.23;;;-0.10;99.90;;;;;;5077085;28;20028;-73
2020/12/09 08:26:10;;;;;;;76.53;14.32;;;0.00;99.90;;;;;;5075935;28;20023;-73
2020/12/09 08:28:36;;;;;;;54.08;14.20;;;0.00;99.90;;;;;;5075667;28;20051;-73
2020/12/09 08:31:13;;;;;;;43.13;13.82;;;0.00;99.90;;;;;;5076667;28;20027;-73
2020/12/09 08:33:39;;;;;;;58.65;13.13;;;0.00;99.90;;;;;;5075525;28;20454;-73
2020/12/09 08:36:12;;;;;;;62.88;15.02;;;0.00;99.90;;;;;;5077137;28;20040;-73
2020/12/09 08:38:45;;;;;;;93.10;16.27;;;0.00;99.90;;;;;;5076642;28;20032;-72
2020/12/09 08:47:16;;;;;;;63.25;14.45;;;0.00;99.90;;;;;;5077038;28;20039;-73
2020/12/09 08:49:41;;;;;;;64.43;13.98;;;0.00;99.90;;;;;;5077616;28;20017;-72
2020/12/09 08:52:09;;;;;;;65.45;13.90;;;0.00;99.90;;;;;;5076946;28;20021;-72
2020/12/09 08:54:35;;;;;;;47.40;14.38;;;0.30;99.90;;;;;;5075195;28;20437;-72
2020/12/09 08:57:00;;;;;;;53.63;13.90;;;0.10;99.90;;;;;;5079382;28;20078;-75
2020/12/09 08:59:29;;;;;;;50.38;14.00;;;0.00;99.90;;;;;;5082810;28;20027;-76
2020/12/09 09:01:55;;;;;;;58.90;13.63;;;0.10;99.90;;;;;;5079225;28;20074;-74
2020/12/09 09:04:26;;;;;;;50.75;13.98;;;0.10;99.90;;;;;;5076636;28;20410;-73
2020/12/09 09:06:52;;;;;;;53.38;15.65;;;0.00;99.90;;;;;;5077017;28;20080;-73
2020/12/09 09:09:17;;;;;;;59.38;14.82;;;0.00;99.90;;;;;;5126734;22;20135;-75
2020/12/09 09:11:43;;;;;;;67.68;14.48;;;0.10;99.90;;;;;;5094107;28;20016;-75
2020/12/09 09:14:08;;;;;;;65.28;14.35;;;0.10;99.90;;;;;;5096643;28;20489;-75
2020/12/09 09:16:36;;;;;;;72.13;15.13;;;0.00;99.90;;;;;;5096517;28;20068;-75
2020/12/09 09:19:01;;;;;;;57.78;15.25;;;0.00;99.90;;;;;;5096736;28;20035;-75
2020/12/09 09:21:37;;;;;;;56.88;15.25;;;0.00;99.90;;;;;;5096455;28;20024;-75
2020/12/09 09:24:03;;;;;;;51.40;13.68;;;0.10;99.90;;;;;;5095013;28;20030;-75
2020/12/09 09:26:35;;;;;;;47.05;14.43;;;0.10;99.90;;;;;;5095930;28;20020;-75
2020/12/09 09:29:01;;;;;;;51.65;13.77;;;0.10;99.90;;;;;;5094286;28;20023;-75
2020/12/09 09:31:26;;;;;;;54.72;14.73;;;0.20;99.90;;;;;;5095235;28;20059;-75
2020/12/09 09:33:55;;;;;;;61.03;13.52;;;0.20;99.90;;;;;;5093839;28;20028;-75
2020/12/09 09:36:20;;;;;;;53.70;13.35;;;0.10;99.90;;;;;;5095562;28;20043;-75
2020/12/09 09:38:46;;;;;;;38.05;14.07;;;0.20;99.90;;;;;;5095472;28;20024;-75
2020/12/09 09:41:11;;;;;;;49.35;12.10;;;0.10;99.90;;;;;;5095783;28;20024;-75
2020/12/09 09:43:41;;;;;;;48.60;13.43;;;0.10;99.90;;;;;;5095544;28;20477;-75
2020/12/09 09:46:06;;;;;;;46.95;12.60;;;0.10;99.90;;;;;;5094115;28;20098;-75
2020/12/09 09:48:32;;;;;;;50.38;13.02;;;0.10;99.90;;;;;;5095219;28;20028;-75
2020/12/09 09:50:58;;;;;;;50.55;13.13;;;0.10;99.90;;;;;;5095704;28;20044;-75
2020/12/09 09:53:23;;;;;;;33.92;11.50;;;0.10;99.90;;;;;;5095297;28;20132;-75
2020/12/09 09:55:52;;;;;;;50.58;12.38;;;0.10;99.90;;;;;;5094097;28;20024;-75
2020/12/09 09:58:17;;;;;;;47.05;12.40;;;1.40;99.90;;;;;;5095052;28;20024;-75
2020/12/09 10:00:46;;;;;;;53.63;12.25;;;0.10;99.90;;;;;;5095154;28;20028;-75
2020/12/09 10:03:11;;;;;;;53.13;11.18;;;0.10;99.90;;;;;;5094371;28;20067;-75
2020/12/09 10:05:37;;;;;;;52.03;12.70;;;0.20;99.90;;;;;;5095016;28;20050;-75
2020/12/09 10:08:03;;;;;;;40.00;12.23;;;0.20;99.90;;;;;;5094879;28;20080;-75
2020/12/09 10:10:28;;;;;;;34.70;12.23;;;0.30;99.90;;;;;;5093709;28;20444;-75
2020/12/09 10:12:54;;;;;;;43.15;13.57;;;0.30;99.90;;;;;;5095399;28;20032;-75
2020/12/09 10:15:20;;;;;;;47.03;13.23;;;0.40;99.90;;;;;;5093877;28;20016;-75
2020/12/09 10:17:45;;;;;;;44.28;11.80;;;0.40;99.90;;;;;;5093458;28;20484;-75
2020/12/09 10:20:11;;;;;;;42.00;12.48;;;0.50;99.90;;;;;;5093667;28;20431;-75
2020/12/09 10:22:36;;;;;;;40.05;12.55;;;0.60;99.90;;;;;;5093384;28;20024;-75
2020/12/09 10:25:02;;;;;;;45.45;12.65;;;0.60;99.90;;;;;;5095131;28;20488;-75
2020/12/09 10:27:27;;;;;;;41.53;11.88;;;0.60;99.90;;;;;;5095050;28;20019;-75
2020/12/09 10:29:53;;;;;;;43.53;12.95;;;0.70;99.90;;;;;;5094687;28;20477;-75
2020/12/09 10:32:18;;;;;;;51.85;13.43;;;0.70;99.90;;;;;;5094285;28;20111;-75
2020/12/09 10:34:44;;;;;;;41.50;12.23;;;0.70;99.90;;;;;;5093299;28;20032;-75
2020/12/09 10:37:10;;;;;;;36.55;11.48;;;0.80;99.90;;;;;;5094368;28;20028;-75
2020/12/09 10:39:38;;;;;;;43.10;12.88;;;0.80;99.90;;;;;;5094457;28;20074;-75
2020/12/09 10:42:03;;;;;;;38.92;12.25;;;0.70;99.90;;;;;;5093267;28;20024;-75
2020/12/09 10:44:29;;;;;;;38.80;12.50;;;0.80;99.90;;;;;;5094772;28;20388;-75
2020/12/09 10:46:54;;;;;;;39.72;12.65;;;0.80;99.90;;;;;;5094247;28;20016;-75
2020/12/09 10:49:20;;;;;;;50.42;14.02;;;0.80;99.90;;;;;;5094335;28;20026;-75
2020/12/09 10:51:51;;;;;;;39.00;12.93;;;0.90;99.90;;;;;;5092855;28;20024;-75
2020/12/09 10:54:20;;;;;;;36.40;12.60;;;0.90;99.90;;;;;;5096116;28;20024;-74
2020/12/09 10:56:46;;;;;;;42.97;13.05;;;0.90;99.90;;;;;;5097265;28;20115;-75
2020/12/09 10:59:12;;;;;;;38.83;12.68;;;1.00;99.90;;;;;;5100144;28;20050;-74
2020/12/09 11:01:37;;;;;;;41.35;12.57;;;1.00;99.90;;;;;;5093230;28;20024;-74
2020/12/09 11:04:04;;;;;;;43.10;13.10;;;1.10;99.90;;;;;;5094317;28;20027;-73
2020/12/09 11:06:32;;;;;;;41.33;13.43;;;1.10;99.90;;;;;;5092968;28;20065;-74
2020/12/09 11:08:59;;;;;;;51.10;13.45;;;1.10;99.90;;;;;;5094299;28;20028;-73
2020/12/09 11:11:26;;;;;;;38.78;11.73;;;1.10;99.90;;;;;;5093182;28;20046;-73
2020/12/09 11:13:52;;;;;;;35.75;12.13;;;1.10;99.90;;;;;;5095142;28;20099;-73
2020/12/09 11:16:18;;;;;;;45.70;13.05;;;1.20;99.90;;;;;;5094510;28;20024;-73
2020/12/09 11:18:44;;;;;;;37.90;12.30;;;1.10;99.90;;;;;;5093083;28;20020;-74
2020/12/09 11:21:11;;;;;;;45.28;13.57;;;1.10;99.90;;;;;;5094233;28;20020;-73
2020/12/09 11:23:37;;;;;;;41.40;12.18;;;1.10;99.90;;;;;;5094227;28;20032;-73
2020/12/09 11:26:06;;;;;;;37.42;11.75;;;1.10;99.90;;;;;;5092691;28;20024;-73
2020/12/09 11:28:31;;;;;;;37.33;11.73;;;1.10;99.90;;;;;;5095506;28;20099;-74
2020/12/09 11:30:57;;;;;;;34.30;11.45;;;1.10;99.90;;;;;;5094211;28;20429;-76
2020/12/09 11:33:23;;;;;;;43.92;12.88;;;1.10;99.90;;;;;;5096469;28;20016;-74
2020/12/09 11:35:48;;;;;;;41.95;12.38;;;1.10;99.90;;;;;;5098222;28;20025;-74
2020/12/09 11:38:14;;;;;;;48.85;12.68;;;2.50;99.90;;;;;;5096409;28;20036;-76
2020/12/09 11:40:42;;;;;;;39.53;11.65;;;1.20;99.90;;;;;;5094758;28;20103;-74
2020/12/09 11:43:08;;;;;;;52.08;13.35;;;1.20;99.90;;;;;;5093430;28;20485;-76
2020/12/09 11:45:35;;;;;;;42.75;12.35;;;1.30;99.90;;;;;;5092849;28;20031;-75
2020/12/09 11:48:01;;;;;;;39.58;12.70;;;1.30;99.90;;;;;;5093049;28;20020;-75
2020/12/09 11:50:26;;;;;;;41.90;12.48;;;1.40;99.90;;;;;;5094061;28;20074;-75
2020/12/09 11:52:52;;;;;;;41.40;12.88;;;1.40;99.90;;;;;;5092558;28;20016;-75
2020/12/09 11:55:17;;;;;;;47.25;13.13;;;1.50;99.90;;;;;;5094625;28;20028;-75
2020/12/09 11:57:43;;;;;;;48.03;13.98;;;1.60;99.90;;;;;;5098050;28;20504;-75
2020/12/09 12:00:08;;;;;;;47.08;13.52;;;1.60;99.90;;;;;;5098000;28;20020;-75
2020/12/09 12:02:34;;;;;;;49.38;13.75;;;1.60;99.90;;;;;;5096242;28;20418;-75
2020/12/09 12:05:01;;;;;;;50.70;13.20;;;1.50;99.90;;;;;;5097326;28;20112;-75
2020/12/09 12:07:27;;;;;;;54.10;14.27;;;1.60;99.90;;;;;;5097387;28;20070;-75
2020/12/09 12:09:52;;;;;;;53.67;14.52;;;1.60;99.90;;;;;;5096293;28;20036;-75
2020/12/09 12:12:18;;;;;;;50.75;13.25;;;1.60;99.90;;;;;;5097274;28;20031;-75
2020/12/09 12:14:43;;;;;;;54.97;14.93;;;1.60;99.90;;;;;;5096154;28;20051;-75
2020/12/09 12:17:11;;;;;;;57.78;16.10;;;1.60;99.90;;;;;;5095945;28;20039;-74
2020/12/09 12:19:36;;;;;;;58.58;13.73;;;1.60;99.90;;;;;;5097405;28;20024;-74
2020/12/09 12:22:05;;;;;;;47.25;13.38;;;1.60;99.90;;;;;;5097790;28;20035;-74
2020/12/09 12:24:31;;;;;;;54.08;13.73;;;1.60;99.90;;;;;;5097735;28;20028;-73
2020/12/09 12:26:57;;;;;;;56.38;14.73;;;1.60;99.90;;;;;;5097113;28;20027;-73
2020/12/09 12:29:23;;;;;;;49.60;13.80;;;1.60;99.90;;;;;;5095711;28;20544;-74
2020/12/09 12:31:49;;;;;;;51.65;13.10;;;1.50;99.90;;;;;;5097853;28;20377;-74
2020/12/09 12:34:14;;;;;;;48.88;13.57;;;1.60;99.90;;;;;;5097374;28;20028;-74
2020/12/09 12:36:40;;;;;;;52.65;13.82;;;1.60;99.90;;;;;;5095623;28;20023;-75
2020/12/09 12:39:07;;;;;;;50.35;13.65;;;1.60;99.90;;;;;;5097527;28;20067;-74
2020/12/09 12:41:33;;;;;;;56.97;14.55;;;1.60;99.90;;;;;;5097063;28;20028;-74
2020/12/09 12:43:58;;;;;;;52.67;15.05;;;1.60;99.90;;;;;;5096472;28;20023;-75